Aviation Digital Data Service (ADDS)

Output produced by METARs form (1605 UTC 15 December 2017)
found at http://aviationweather.gov/adds/metars/
 
METAR text: KONP 151555Z AUTO 00000KT 10SM OVC025 06/03 A3028 RMK AO2
Conditions at: KONP (NEWPORT , OR, US) observed 1555 UTC 15 December 2017
Temperature: 6.0°C (43°F)
Dewpoint: 3.0°C (37°F) [RH = 81%]
Pressure (altimeter): 30.28 inches Hg (1025.5 mb)
Winds: calm
Visibility: 10 or more miles (16+ km)
Ceiling: 2500 feet AGL
Clouds: overcast cloud deck at 2500 feet AGL
Weather: automated observation with no human augmentation;
there may or may not be significant weather present at this time

METAR text: KONP 151535Z AUTO 07003KT 10SM SCT012 OVC025 05/02 A3028 RMK AO2
Conditions at: KONP (NEWPORT , OR, US) observed 1535 UTC 15 December 2017
Temperature: 5.0°C (41°F)
Dewpoint: 2.0°C (36°F) [RH = 81%]
Pressure (altimeter): 30.28 inches Hg (1025.5 mb)
Winds: from the ENE (70 degrees) at 3 MPH (3 knots; 1.6 m/s)
Visibility: 10 or more miles (16+ km)
Ceiling: 2500 feet AGL
Clouds: scattered clouds at 1200 feet AGL
overcast cloud deck at 2500 feet AGL
Weather: automated observation with no human augmentation;
there may or may not be significant weather present at this time

METAR text: KONP 151515Z AUTO 13003KT 10SM BKN012 OVC023 05/02 A3027 RMK AO2
Conditions at: KONP (NEWPORT , OR, US) observed 1515 UTC 15 December 2017
Temperature: 5.0°C (41°F)
Dewpoint: 2.0°C (36°F) [RH = 81%]
Pressure (altimeter): 30.27 inches Hg (1025.1 mb)
Winds: from the SE (130 degrees) at 3 MPH (3 knots; 1.6 m/s)
Visibility: 10 or more miles (16+ km)
Ceiling: 1200 feet AGL
Clouds: broken clouds at 1200 feet AGL
overcast cloud deck at 2300 feet AGL
Weather: automated observation with no human augmentation;
there may or may not be significant weather present at this time

METAR text: KONP 151455Z AUTO 00000KT 10SM SCT012 BKN025 OVC034 05/01 A3027 RMK AO2
Conditions at: KONP (NEWPORT , OR, US) observed 1455 UTC 15 December 2017
Temperature: 5.0°C (41°F)
Dewpoint: 1.0°C (34°F) [RH = 75%]
Pressure (altimeter): 30.27 inches Hg (1025.1 mb)
Winds: calm
Visibility: 10 or more miles (16+ km)
Ceiling: 2500 feet AGL
Clouds: scattered clouds at 1200 feet AGL
broken clouds at 2500 feet AGL
overcast cloud deck at 3400 feet AGL
Weather: automated observation with no human augmentation;
there may or may not be significant weather present at this time

METAR text: KONP 151435Z AUTO 09004KT 10SM SCT027 BKN047 OVC055 05/01 A3026 RMK AO2
Conditions at: KONP (NEWPORT , OR, US) observed 1435 UTC 15 December 2017
Temperature: 5.0°C (41°F)
Dewpoint: 1.0°C (34°F) [RH = 75%]
Pressure (altimeter): 30.26 inches Hg (1024.8 mb)
Winds: from the E (90 degrees) at 5 MPH (4 knots; 2.1 m/s)
Visibility: 10 or more miles (16+ km)
Ceiling: 4700 feet AGL
Clouds: scattered clouds at 2700 feet AGL
broken clouds at 4700 feet AGL
overcast cloud deck at 5500 feet AGL
Weather: automated observation with no human augmentation;
there may or may not be significant weather present at this time

METAR text: KONP 151415Z AUTO 10005KT 10SM BKN032 BKN040 OVC049 05/01 A3026 RMK AO2
Conditions at: KONP (NEWPORT , OR, US) observed 1415 UTC 15 December 2017
Temperature: 5.0°C (41°F)
Dewpoint: 1.0°C (34°F) [RH = 75%]
Pressure (altimeter): 30.26 inches Hg (1024.8 mb)
Winds: from the E (100 degrees) at 6 MPH (5 knots; 2.6 m/s)
Visibility: 10 or more miles (16+ km)
Ceiling: 3200 feet AGL
Clouds: broken clouds at 3200 feet AGL
broken clouds at 4000 feet AGL
overcast cloud deck at 4900 feet AGL
Weather: automated observation with no human augmentation;
there may or may not be significant weather present at this time

Forecast for: KONP (NEWPORT , OR, US)
Text: KONP 151502Z 1515/1612 08004KT P6SM BKN025 OVC035
Forecast period: 1500 to 1700 UTC 15 December 2017
Forecast type: FROM: standard forecast or significant change
Winds: from the E (80 degrees) at 5 MPH (4 knots; 2.1 m/s)
Visibility: 6 or more miles (10+ km)
Ceiling: 2500 feet AGL
Clouds: broken clouds at 2500 feet AGL
overcast cloud deck at 3500 feet AGL
Weather: no significant weather forecast for this period
Text: FM151700 VRB03KT 4SM -RA BKN018 OVC040
Forecast period: 1700 to 2100 UTC 15 December 2017
Forecast type: FROM: standard forecast or significant change
Winds: variable direction winds at 3 MPH (3 knots; 1.6 m/s)
Visibility: 4 miles (6 km)
Ceiling: 1800 feet AGL
Clouds: broken clouds at 1800 feet AGL
overcast cloud deck at 4000 feet AGL
Weather: -RA  (light rain)
Text: FM152100 33010KT 6SM -RA BKN022 OVC040
Forecast period: 2100 UTC 15 December 2017 to 0200 UTC 16 December 2017
Forecast type: FROM: standard forecast or significant change
Winds: from the NNW (330 degrees) at 12 MPH (10 knots; 5.2 m/s)
Visibility: 6 miles (10 km)
Ceiling: 2200 feet AGL
Clouds: broken clouds at 2200 feet AGL
overcast cloud deck at 4000 feet AGL
Weather: -RA  (light rain)
Text: FM160200 35007KT P6SM VCSH SCT025 BKN035
Forecast period: 0200 to 1200 UTC 16 December 2017
Forecast type: FROM: standard forecast or significant change
Winds: from the N (350 degrees) at 8 MPH (7 knots; 3.6 m/s)
Visibility: 6 or more miles (10+ km)
Ceiling: 3500 feet AGL
Clouds: scattered clouds at 2500 feet AGL
broken clouds at 3500 feet AGL
Weather: VCSH  (showers in vicinity)